sensor_id;sensor_type;location;lat;lon;timestamp;P1;P2;P0
64570;PMS5003;61095;52.454;16.948;2023-05-10T06:04:22;12.00;12.00;7.00
64570;PMS5003;61095;52.454;16.948;2023-05-10T06:09:23;12.33;11.33;7.00
64570;PMS5003;61095;52.454;16.948;2023-05-10T06:14:23;13.00;13.00;6.00
64570;PMS5003;61095;52.454;16.948;2023-05-10T06:19:25;12.00;11.00;6.00
64570;PMS5003;61095;52.454;16.948;2023-05-10T06:24:25;12.00;10.00;6.67
64570;PMS5003;61095;52.454;16.948;2023-05-10T06:29:26;12.00;10.67;6.00
64570;PMS5003;61095;52.454;16.948;2023-05-10T06:34:28;13.00;12.00;7.00
64570;PMS5003;61095;52.454;16.948;2023-05-10T06:39:28;13.00;13.00;7.00
64570;PMS5003;61095;52.454;16.948;2023-05-10T06:44:29;14.00;12.00;5.00
64570;PMS5003;61095;52.454;16.948;2023-05-10T06:49:30;11.67;9.67;4.67
64570;PMS5003;61095;52.454;16.948;2023-05-10T06:54:31;8.00;7.33;6.00
64570;PMS5003;61095;52.454;16.948;2023-05-10T06:59:31;11.00;10.00;6.00
64570;PMS5003;61095;52.454;16.948;2023-05-10T07:04:33;8.00;7.67;5.00
64570;PMS5003;61095;52.454;16.948;2023-05-10T07:09:33;7.00;7.00;4.00
64570;PMS5003;61095;52.454;16.948;2023-05-10T07:14:39;8.00;8.00;4.67
64570;PMS5003;61095;52.454;16.948;2023-05-10T07:19:40;8.00;8.00;4.33
64570;PMS5003;61095;52.454;16.948;2023-05-10T07:24:41;11.33;10.00;7.00
64570;PMS5003;61095;52.454;16.948;2023-05-10T07:29:41;10.00;8.00;5.00
64570;PMS5003;61095;52.454;16.948;2023-05-10T07:34:43;9.67;8.67;6.00
64570;PMS5003;61095;52.454;16.948;2023-05-10T07:39:43;11.33;8.00;5.00
64570;PMS5003;61095;52.454;16.948;2023-05-10T07:44:44;6.67;6.67;5.00
64570;PMS5003;61095;52.454;16.948;2023-05-10T07:49:45;8.67;8.67;5.33
64570;PMS5003;61095;52.454;16.948;2023-05-10T07:54:46;8.00;8.00;6.00
64570;PMS5003;61095;52.454;16.948;2023-05-10T07:59:46;7.00;7.00;4.00
64570;PMS5003;61095;52.454;16.948;2023-05-10T08:04:48;9.00;9.00;4.00
64570;PMS5003;61095;52.454;16.948;2023-05-10T08:09:48;7.00;7.00;5.00
64570;PMS5003;61095;52.454;16.948;2023-05-10T08:14:48;8.00;7.00;4.00
64570;PMS5003;61095;52.454;16.948;2023-05-10T08:19:50;7.00;7.00;4.00
64570;PMS5003;61095;52.454;16.948;2023-05-10T08:24:50;7.00;7.00;4.33
64570;PMS5003;61095;52.454;16.948;2023-05-10T08:29:51;8.00;7.00;4.00
64570;PMS5003;61095;52.454;16.948;2023-05-10T08:34:53;8.00;7.00;4.00
64570;PMS5003;61095;52.454;16.948;2023-05-10T08:39:55;6.00;6.00;3.67
64570;PMS5003;61095;52.454;16.948;2023-05-10T08:44:55;7.00;6.33;3.00
64570;PMS5003;61095;52.454;16.948;2023-05-10T08:49:58;7.00;6.33;2.00
64570;PMS5003;61095;52.454;16.948;2023-05-10T08:55:00;8.00;8.00;3.00
64570;PMS5003;61095;52.454;16.948;2023-05-10T09:00:01;7.67;7.00;4.00
64570;PMS5003;61095;52.454;16.948;2023-05-10T09:05:03;6.00;6.00;2.00
64570;PMS5003;61095;52.454;16.948;2023-05-10T09:10:04;6.00;6.00;2.33
64570;PMS5003;61095;52.454;16.948;2023-05-10T09:15:06;4.00;4.00;3.00
64570;PMS5003;61095;52.454;16.948;2023-05-10T09:20:10;7.00;6.00;3.00
64570;PMS5003;61095;52.454;16.948;2023-05-10T09:25:11;4.00;4.00;2.00
64570;PMS5003;61095;52.454;16.948;2023-05-10T09:30:15;4.67;4.67;1.00
64570;PMS5003;61095;52.454;16.948;2023-05-10T09:35:19;3.00;3.00;1.00
64570;PMS5003;61095;52.454;16.948;2023-05-10T09:40:21;4.67;4.67;1.00
64570;PMS5003;61095;52.454;16.948;2023-05-10T09:45:23;4.33;3.00;1.00
64570;PMS5003;61095;52.454;16.948;2023-05-10T09:50:29;3.00;3.00;1.00
64570;PMS5003;61095;52.454;16.948;2023-05-10T09:55:38;2.33;2.00;0.00
64570;PMS5003;61095;52.454;16.948;2023-05-10T10:00:40;3.00;3.00;0.00
64570;PMS5003;61095;52.454;16.948;2023-05-10T10:05:43;2.00;2.00;0.00
64570;PMS5003;61095;52.454;16.948;2023-05-10T10:10:44;4.00;4.00;1.00
64570;PMS5003;61095;52.454;16.948;2023-05-10T10:15:44;2.00;2.00;1.00
64570;PMS5003;61095;52.454;16.948;2023-05-10T10:20:46;3.00;2.33;1.00
64570;PMS5003;61095;52.454;16.948;2023-05-10T10:25:47;1.33;1.33;0.00
64570;PMS5003;61095;52.454;16.948;2023-05-10T10:30:51;2.00;2.00;0.00
64570;PMS5003;61095;52.454;16.948;2023-05-10T10:35:57;3.00;3.00;0.00
64570;PMS5003;61095;52.454;16.948;2023-05-10T10:41:02;3.00;3.00;0.00
64570;PMS5003;61095;52.454;16.948;2023-05-10T10:46:13;2.00;2.00;0.00
64570;PMS5003;61095;52.454;16.948;2023-05-10T10:51:15;2.00;1.67;0.00
64570;PMS5003;61095;52.454;16.948;2023-05-10T10:56:17;3.67;3.00;1.00
64570;PMS5003;61095;52.454;16.948;2023-05-10T11:01:22;2.00;2.00;0.00
64570;PMS5003;61095;52.454;16.948;2023-05-10T11:06:29;2.00;2.00;0.00
64570;PMS5003;61095;52.454;16.948;2023-05-10T11:11:30;5.00;4.00;0.00
64570;PMS5003;61095;52.454;16.948;2023-05-10T11:16:40;2.00;2.00;0.00
64570;PMS5003;61095;52.454;16.948;2023-05-10T11:21:46;3.67;3.33;1.00
64570;PMS5003;61095;52.454;16.948;2023-05-10T11:26:49;4.67;4.00;1.00
64570;PMS5003;61095;52.454;16.948;2023-05-10T11:31:50;3.33;3.33;0.33
64570;PMS5003;61095;52.454;16.948;2023-05-10T11:36:52;3.00;3.00;1.00
64570;PMS5003;61095;52.454;16.948;2023-05-10T11:41:53;4.00;4.00;1.00
64570;PMS5003;61095;52.454;16.948;2023-05-10T11:46:54;3.33;3.33;0.00
64570;PMS5003;61095;52.454;16.948;2023-05-10T11:52:06;3.33;2.00;1.00
64570;PMS5003;61095;52.454;16.948;2023-05-10T11:57:07;3.67;3.00;1.00
64570;PMS5003;61095;52.454;16.948;2023-05-10T12:02:07;3.00;3.00;1.00
64570;PMS5003;61095;52.454;16.948;2023-05-10T12:07:09;3.00;3.00;0.00
64570;PMS5003;61095;52.454;16.948;2023-05-10T12:12:10;3.00;3.00;0.00
64570;PMS5003;61095;52.454;16.948;2023-05-10T12:17:18;3.00;3.00;0.33
64570;PMS5003;61095;52.454;16.948;2023-05-10T12:22:26;3.00;3.00;0.00
64570;PMS5003;61095;52.454;16.948;2023-05-10T12:27:31;3.00;3.00;0.00
64570;PMS5003;61095;52.454;16.948;2023-05-10T12:32:38;3.00;3.00;0.00
64570;PMS5003;61095;52.454;16.948;2023-05-10T12:37:41;3.00;2.67;0.00
64570;PMS5003;61095;52.454;16.948;2023-05-10T12:42:42;4.00;4.00;1.00
64570;PMS5003;61095;52.454;16.948;2023-05-10T12:47:43;3.67;3.67;1.00
64570;PMS5003;61095;52.454;16.948;2023-05-10T12:52:45;4.00;3.00;1.00
64570;PMS5003;61095;52.454;16.948;2023-05-10T12:57:45;4.33;4.33;1.33
64570;PMS5003;61095;52.454;16.948;2023-05-10T13:02:45;4.00;3.67;2.00
64570;PMS5003;61095;52.454;16.948;2023-05-10T13:07:47;4.00;4.00;1.00
64570;PMS5003;61095;52.454;16.948;2023-05-10T13:12:47;5.33;4.33;1.33
64570;PMS5003;61095;52.454;16.948;2023-05-10T13:17:48;3.00;3.00;1.00
64570;PMS5003;61095;52.454;16.948;2023-05-10T13:22:52;3.00;2.67;1.00
64570;PMS5003;61095;52.454;16.948;2023-05-10T13:27:55;4.00;4.00;1.00
64570;PMS5003;61095;52.454;16.948;2023-05-10T13:32:56;4.00;4.00;1.00
64570;PMS5003;61095;52.454;16.948;2023-05-10T13:37:58;4.00;3.67;0.00
64570;PMS5003;61095;52.454;16.948;2023-05-10T13:42:58;2.00;2.00;0.00
64570;PMS5003;61095;52.454;16.948;2023-05-10T13:47:58;3.00;3.00;0.00
64570;PMS5003;61095;52.454;16.948;2023-05-10T13:53:00;3.33;3.00;0.00
64570;PMS5003;61095;52.454;16.948;2023-05-10T13:58:01;5.00;5.00;1.33
64570;PMS5003;61095;52.454;16.948;2023-05-10T14:03:02;3.00;3.00;2.00
64570;PMS5003;61095;52.454;16.948;2023-05-10T14:08:05;5.67;5.33;1.67
64570;PMS5003;61095;52.454;16.948;2023-05-10T14:13:05;4.00;4.00;2.00
64570;PMS5003;61095;52.454;16.948;2023-05-10T14:18:06;4.00;4.00;2.00
64570;PMS5003;61095;52.454;16.948;2023-05-10T14:23:07;4.00;4.00;2.00
64570;PMS5003;61095;52.454;16.948;2023-05-10T14:28:08;5.00;4.00;2.00
64570;PMS5003;61095;52.454;16.948;2023-05-10T14:33:08;4.00;4.00;2.00
64570;PMS5003;61095;52.454;16.948;2023-05-10T14:38:11;6.00;6.00;2.00
64570;PMS5003;61095;52.454;16.948;2023-05-10T14:43:12;7.00;7.00;3.00
64570;PMS5003;61095;52.454;16.948;2023-05-10T14:48:12;5.00;5.00;2.00
64570;PMS5003;61095;52.454;16.948;2023-05-10T14:53:14;5.00;5.00;3.00
64570;PMS5003;61095;52.454;16.948;2023-05-10T14:58:18;5.00;5.00;3.00
64570;PMS5003;61095;52.454;16.948;2023-05-10T15:03:18;6.00;6.00;3.67
64570;PMS5003;61095;52.454;16.948;2023-05-10T15:08:20;7.00;7.00;4.00
64570;PMS5003;61095;52.454;16.948;2023-05-10T15:13:20;6.00;6.00;3.00
64570;PMS5003;61095;52.454;16.948;2023-05-10T15:18:21;4.00;4.00;3.00
64570;PMS5003;61095;52.454;16.948;2023-05-10T15:23:22;5.00;5.00;3.00
64570;PMS5003;61095;52.454;16.948;2023-05-10T15:28:26;6.00;6.00;3.00
64570;PMS5003;61095;52.454;16.948;2023-05-10T15:33:26;7.00;7.00;4.00
64570;PMS5003;61095;52.454;16.948;2023-05-10T15:38:28;7.00;7.00;5.67
64570;PMS5003;61095;52.454;16.948;2023-05-10T15:43:28;6.00;6.00;4.00
64570;PMS5003;61095;52.454;16.948;2023-05-10T15:48:29;7.00;6.33;4.00
64570;PMS5003;61095;52.454;16.948;2023-05-10T15:53:30;6.33;6.33;4.00
64570;PMS5003;61095;52.454;16.948;2023-05-10T15:58:31;8.00;7.00;3.00
64570;PMS5003;61095;52.454;16.948;2023-05-10T16:03:31;8.00;7.67;4.67
64570;PMS5003;61095;52.454;16.948;2023-05-10T16:08:33;7.00;6.00;3.00
64570;PMS5003;61095;52.454;16.948;2023-05-10T16:13:34;5.00;5.00;3.00
64570;PMS5003;61095;52.454;16.948;2023-05-10T16:18:35;6.33;6.33;3.00
64570;PMS5003;61095;52.454;16.948;2023-05-10T16:23:37;4.00;4.00;2.00
64570;PMS5003;61095;52.454;16.948;2023-05-10T16:28:38;4.00;4.00;3.00
64570;PMS5003;61095;52.454;16.948;2023-05-10T16:33:39;5.00;4.00;3.00
64570;PMS5003;61095;52.454;16.948;2023-05-10T16:38:40;5.00;4.00;3.00
64570;PMS5003;61095;52.454;16.948;2023-05-10T16:43:41;4.33;4.33;2.33
64570;PMS5003;61095;52.454;16.948;2023-05-10T16:48:41;6.00;6.00;3.00
64570;PMS5003;61095;52.454;16.948;2023-05-10T16:53:43;5.67;5.00;3.00
64570;PMS5003;61095;52.454;16.948;2023-05-10T16:58:43;4.33;4.00;2.00
64570;PMS5003;61095;52.454;16.948;2023-05-10T17:03:45;5.67;4.67;3.67
64570;PMS5003;61095;52.454;16.948;2023-05-10T17:08:47;5.00;5.00;4.00
64570;PMS5003;61095;52.454;16.948;2023-05-10T17:13:47;4.00;4.00;2.00
64570;PMS5003;61095;52.454;16.948;2023-05-10T17:18:47;5.00;5.00;2.33
64570;PMS5003;61095;52.454;16.948;2023-05-10T17:23:49;6.00;5.33;3.00
64570;PMS5003;61095;52.454;16.948;2023-05-10T17:28:51;5.00;5.00;2.00
64570;PMS5003;61095;52.454;16.948;2023-05-10T17:33:51;6.00;6.00;3.33
64570;PMS5003;61095;52.454;16.948;2023-05-10T17:38:53;6.00;5.00;2.67
64570;PMS5003;61095;52.454;16.948;2023-05-10T17:43:54;7.00;7.00;3.00
64570;PMS5003;61095;52.454;16.948;2023-05-10T17:48:54;8.00;7.33;3.33
64570;PMS5003;61095;52.454;16.948;2023-05-10T17:53:56;6.33;6.33;4.33
64570;PMS5003;61095;52.454;16.948;2023-05-10T17:58:57;6.00;5.00;3.00
64570;PMS5003;61095;52.454;16.948;2023-05-10T18:03:58;8.00;7.00;3.00
64570;PMS5003;61095;52.454;16.948;2023-05-10T18:09:00;8.00;7.00;4.67
64570;PMS5003;61095;52.454;16.948;2023-05-10T18:14:01;8.00;8.00;5.00
64570;PMS5003;61095;52.454;16.948;2023-05-10T18:19:01;6.00;6.00;3.33
64570;PMS5003;61095;52.454;16.948;2023-05-10T18:24:03;9.00;8.00;4.00
64570;PMS5003;61095;52.454;16.948;2023-05-10T18:29:04;9.00;9.00;5.00
64570;PMS5003;61095;52.454;16.948;2023-05-10T18:34:05;7.00;6.33;5.00
64570;PMS5003;61095;52.454;16.948;2023-05-10T18:39:07;9.67;9.33;5.00
64570;PMS5003;61095;52.454;16.948;2023-05-10T18:44:07;10.67;9.67;6.00
64570;PMS5003;61095;52.454;16.948;2023-05-10T18:49:08;8.00;7.00;5.00
64570;PMS5003;61095;52.454;16.948;2023-05-10T18:54:09;7.67;7.67;5.00
64570;PMS5003;61095;52.454;16.948;2023-05-10T18:59:10;7.00;6.00;3.00
64570;PMS5003;61095;52.454;16.948;2023-05-10T19:04:14;10.33;9.00;6.00
64570;PMS5003;61095;52.454;16.948;2023-05-10T19:09:18;15.00;12.00;7.00
64570;PMS5003;61095;52.454;16.948;2023-05-10T19:14:19;17.00;13.00;8.00
64570;PMS5003;61095;52.454;16.948;2023-05-10T19:19:20;19.33;17.00;11.00
64570;PMS5003;61095;52.454;16.948;2023-05-10T19:24:21;19.00;18.00;8.67
64570;PMS5003;61095;52.454;16.948;2023-05-10T19:29:22;17.33;16.00;8.00
64570;PMS5003;61095;52.454;16.948;2023-05-10T19:34:23;16.33;14.00;6.00
64570;PMS5003;61095;52.454;16.948;2023-05-10T19:39:25;15.00;10.33;5.00
64570;PMS5003;61095;52.454;16.948;2023-05-10T19:44:25;11.00;9.00;4.00
64570;PMS5003;61095;52.454;16.948;2023-05-10T19:49:25;10.00;9.00;3.00
64570;PMS5003;61095;52.454;16.948;2023-05-10T19:54:27;9.00;8.00;4.33
64570;PMS5003;61095;52.454;16.948;2023-05-10T19:59:29;10.00;8.00;6.00
64570;PMS5003;61095;52.454;16.948;2023-05-10T20:04:32;6.33;6.33;5.00
64570;PMS5003;61095;52.454;16.948;2023-05-10T20:09:40;8.00;8.00;5.67
64570;PMS5003;61095;52.454;16.948;2023-05-10T20:14:41;8.00;8.00;5.00
64570;PMS5003;61095;52.454;16.948;2023-05-10T20:19:41;8.00;7.00;4.67
64570;PMS5003;61095;52.454;16.948;2023-05-10T20:24:43;7.00;7.00;4.00
64570;PMS5003;61095;52.454;16.948;2023-05-10T20:29:43;8.00;8.00;3.00
64570;PMS5003;61095;52.454;16.948;2023-05-10T20:34:47;8.00;8.00;4.00
64570;PMS5003;61095;52.454;16.948;2023-05-10T20:39:49;9.00;9.00;3.00
64570;PMS5003;61095;52.454;16.948;2023-05-10T20:44:49;10.00;9.00;4.67
64570;PMS5003;61095;52.454;16.948;2023-05-10T20:49:50;8.33;8.33;5.00
64570;PMS5003;61095;52.454;16.948;2023-05-10T20:54:51;9.00;9.00;6.00
64570;PMS5003;61095;52.454;16.948;2023-05-10T20:59:52;7.00;7.00;5.00
